Time,TemperatureF,DewpointF,PressureIn,WindDirection,WindDirectionDegrees,WindSpeedMPH,WindSpeedGustMPH,Humidity,HourlyPrecipIn,Conditions,Clouds,dailyrainin,SoftwareType,DateUTC
2013-07-10 00:00:00,76.8,75.3,30.09,SW,232,3.0,4.0,95,0.00,,,0.00,WeatherTracker,2013-07-10 05:00:00,
2013-07-10 00:05:00,76.7,75.2,30.09,SW,232,0.0,4.0,95,0.00,,,0.00,WeatherTracker,2013-07-10 05:05:00,
2013-07-10 00:15:00,76.6,75.1,30.08,SW,232,0.0,3.0,95,0.00,,,0.00,WeatherTracker,2013-07-10 05:15:00,
2013-07-10 00:20:00,76.5,75.0,30.08,SW,232,3.0,3.0,95,0.00,,,0.00,WeatherTracker,2013-07-10 05:20:00,
2013-07-10 00:30:00,76.4,75.2,30.08,SW,232,0.0,3.0,96,0.00,,,0.00,WeatherTracker,2013-07-10 05:30:00,
2013-07-10 00:40:00,76.3,75.1,30.08,SW,232,0.0,1.0,96,0.00,,,0.00,WeatherTracker,2013-07-10 05:40:00,
2013-07-10 00:50:00,76.3,75.1,30.07,SW,232,0.0,2.0,96,0.00,,,0.00,WeatherTracker,2013-07-10 05:50:00,
2013-07-10 00:55:00,76.2,75.0,30.07,SW,232,0.0,1.0,96,0.00,,,0.00,WeatherTracker,2013-07-10 05:55:00,
2013-07-10 01:00:00,76.2,75.0,30.07,SW,232,1.0,1.0,96,0.00,,,0.00,WeatherTracker,2013-07-10 06:00:00,
2013-07-10 01:05:00,76.1,74.9,30.07,SW,232,3.0,3.0,96,0.00,,,0.00,WeatherTracker,2013-07-10 06:05:00,
2013-07-10 01:10:00,76.1,74.9,30.07,SW,232,0.0,3.0,96,0.00,,,0.00,WeatherTracker,2013-07-10 06:10:00,
2013-07-10 01:20:00,76.0,74.8,30.07,SW,232,0.0,3.0,96,0.00,,,0.00,WeatherTracker,2013-07-10 06:20:00,
2013-07-10 01:25:00,76.0,74.8,30.06,SW,232,0.0,3.0,96,0.00,,,0.00,WeatherTracker,2013-07-10 06:25:00,
2013-07-10 01:35:00,75.8,74.6,30.06,SW,232,0.0,0.0,96,0.00,,,0.00,WeatherTracker,2013-07-10 06:35:00,
2013-07-10 01:45:00,75.5,74.0,30.06,SW,232,0.0,0.0,95,0.00,,,0.00,WeatherTracker,2013-07-10 06:45:00,
2013-07-10 01:55:00,75.4,73.9,30.05,SW,232,0.0,0.0,95,0.00,,,0.00,WeatherTracker,2013-07-10 06:55:00,
2013-07-10 02:00:00,75.4,74.2,30.05,SW,232,0.0,0.0,96,0.00,,,0.00,WeatherTracker,2013-07-10 07:00:00,
2013-07-10 02:10:00,75.2,74.0,30.05,SW,232,0.0,0.0,96,0.00,,,0.00,WeatherTracker,2013-07-10 07:10:00,
2013-07-10 02:20:00,75.3,74.1,30.06,SW,232,0.0,0.0,96,0.00,,,0.00,WeatherTracker,2013-07-10 07:20:00,
2013-07-10 02:25:00,75.3,74.1,30.06,SW,232,0.0,2.0,96,0.00,,,0.00,WeatherTracker,2013-07-10 07:25:00,
2013-07-10 02:30:00,75.2,74.0,30.06,SW,232,0.0,2.0,96,0.00,,,0.00,WeatherTracker,2013-07-10 07:30:00,
2013-07-10 02:40:00,75.1,73.9,30.06,SW,232,0.0,0.0,96,0.00,,,0.00,WeatherTracker,2013-07-10 07:40:00,
2013-07-10 02:45:00,75.1,73.9,30.06,SW,232,0.0,1.0,96,0.00,,,0.00,WeatherTracker,2013-07-10 07:45:00,
2013-07-10 02:55:00,75.1,74.2,30.06,SW,232,0.0,0.0,97,0.00,,,0.00,WeatherTracker,2013-07-10 07:55:00,
2013-07-10 03:05:00,75.1,74.2,30.05,SW,232,0.0,3.0,97,0.00,,,0.00,WeatherTracker,2013-07-10 08:05:00,
2013-07-10 03:11:00,75.0,74.1,30.06,SW,232,0.0,0.0,97,0.00,,,0.00,WeatherTracker,2013-07-10 08:11:00,
2013-07-10 03:20:00,74.9,74.0,30.05,SW,232,0.0,0.0,97,0.00,,,0.00,WeatherTracker,2013-07-10 08:20:00,
2013-07-10 03:25:00,74.9,73.7,30.05,SW,232,0.0,0.0,96,0.00,,,0.00,WeatherTracker,2013-07-10 08:25:00,
2013-07-10 03:30:00,74.8,73.6,30.05,SW,232,0.0,0.0,96,0.00,,,0.00,WeatherTracker,2013-07-10 08:30:00,
2013-07-10 03:35:00,74.8,73.6,30.05,SW,232,0.0,0.0,96,0.00,,,0.00,WeatherTracker,2013-07-10 08:35:00,
2013-07-10 03:45:00,74.7,73.8,30.05,SW,232,0.0,0.0,97,0.00,,,0.00,WeatherTracker,2013-07-10 08:45:00,
2013-07-10 03:55:00,74.7,73.8,30.05,SW,232,0.0,0.0,97,0.00,,,0.00,WeatherTracker,2013-07-10 08:55:00,
2013-07-10 04:00:00,74.7,73.8,30.05,SW,232,0.0,0.0,97,0.00,,,0.00,WeatherTracker,2013-07-10 09:00:00,
2013-07-10 04:05:00,74.6,73.7,30.06,SW,232,0.0,0.0,97,0.00,,,0.00,WeatherTracker,2013-07-10 09:05:00,
2013-07-10 04:15:00,74.5,73.6,30.06,SW,232,0.0,0.0,97,0.00,,,0.00,WeatherTracker,2013-07-10 09:15:00,
2013-07-10 04:25:00,74.4,73.5,30.06,SW,232,0.0,0.0,97,0.00,,,0.00,WeatherTracker,2013-07-10 09:25:00,
2013-07-10 04:35:00,74.3,73.4,30.06,SW,232,0.0,0.0,97,0.00,,,0.00,WeatherTracker,2013-07-10 09:35:00,
2013-07-10 04:45:00,74.3,73.4,30.06,SW,232,0.0,0.0,97,0.00,,,0.00,WeatherTracker,2013-07-10 09:45:00,
2013-07-10 04:55:00,74.3,73.4,30.06,SW,232,0.0,0.0,97,0.00,,,0.00,WeatherTracker,2013-07-10 09:55:00,
2013-07-10 05:05:00,74.4,73.5,30.06,SW,232,0.0,3.0,97,0.00,,,0.00,WeatherTracker,2013-07-10 10:05:00,
2013-07-10 05:10:00,74.4,73.5,30.06,SW,232,0.0,3.0,97,0.00,,,0.00,WeatherTracker,2013-07-10 10:10:00,
2013-07-10 05:20:00,74.2,73.3,30.06,SW,232,0.0,0.0,97,0.00,,,0.00,WeatherTracker,2013-07-10 10:20:00,
2013-07-10 05:25:00,74.2,73.3,30.06,SW,232,0.0,3.0,97,0.00,,,0.00,WeatherTracker,2013-07-10 10:25:00,
2013-07-10 05:35:00,74.2,73.3,30.07,SW,232,1.0,3.0,97,0.00,,,0.00,WeatherTracker,2013-07-10 10:35:00,
2013-07-10 05:45:00,74.2,73.3,30.07,SW,232,0.0,2.0,97,0.00,,,0.00,WeatherTracker,2013-07-10 10:45:00,
2013-07-10 05:50:00,74.2,73.3,30.07,SW,232,0.0,0.0,97,0.00,,,0.00,WeatherTracker,2013-07-10 10:50:00,
2013-07-10 06:00:00,74.0,73.1,30.07,SW,232,0.0,0.0,97,0.00,,,0.00,WeatherTracker,2013-07-10 11:00:00,
2013-07-10 06:10:00,73.9,73.0,30.07,SW,232,0.0,0.0,97,0.00,,,0.00,WeatherTracker,2013-07-10 11:10:00,
2013-07-10 06:15:00,73.9,73.0,30.07,SW,232,0.0,0.0,97,0.00,,,0.00,WeatherTracker,2013-07-10 11:15:00,
2013-07-10 06:25:00,73.8,72.9,30.07,SW,232,0.0,0.0,97,0.00,,,0.00,WeatherTracker,2013-07-10 11:25:00,
2013-07-10 06:30:00,73.9,73.0,30.08,SW,232,0.0,0.0,97,0.00,,,0.00,WeatherTracker,2013-07-10 11:30:00,
2013-07-10 06:40:00,74.2,73.3,30.08,SW,232,0.0,0.0,97,0.00,,,0.00,WeatherTracker,2013-07-10 11:40:00,
2013-07-10 06:50:00,74.6,73.7,30.08,SW,232,2.0,0.0,97,0.00,,,0.00,WeatherTracker,2013-07-10 11:50:00,
2013-07-10 06:55:00,74.8,73.9,30.08,SW,232,1.0,3.0,97,0.00,,,0.00,WeatherTracker,2013-07-10 11:55:00,
2013-07-10 07:05:00,75.1,74.2,30.08,SW,232,1.0,4.0,97,0.00,,,0.00,WeatherTracker,2013-07-10 12:05:00,
2013-07-10 07:10:00,75.3,74.4,30.08,NW,304,2.0,4.0,97,0.00,,,0.00,WeatherTracker,2013-07-10 12:10:00,
2013-07-10 07:20:00,75.6,74.7,30.08,NW,307,2.0,3.0,97,0.00,,,0.00,WeatherTracker,2013-07-10 12:20:00,
2013-07-10 07:25:00,75.7,74.8,30.08,NW,307,0.0,3.0,97,0.00,,,0.00,WeatherTracker,2013-07-10 12:25:00,
2013-07-10 07:35:00,76.2,75.3,30.09,WNW,285,1.0,3.0,97,0.00,,,0.00,WeatherTracker,2013-07-10 12:35:00,
2013-07-10 07:40:00,76.4,75.5,30.09,West,262,4.0,4.0,97,0.00,,,0.00,WeatherTracker,2013-07-10 12:40:00,
2013-07-10 07:50:00,76.6,75.7,30.09,NNW,332,1.0,4.0,97,0.00,,,0.00,WeatherTracker,2013-07-10 12:50:00,
2013-07-10 07:55:00,76.7,75.5,30.09,West,279,4.0,5.0,96,0.00,,,0.00,WeatherTracker,2013-07-10 12:55:00,
2013-07-10 08:05:00,77.2,76.0,30.09,West,281,2.0,4.0,96,0.00,,,0.00,WeatherTracker,2013-07-10 13:05:00,
2013-07-10 08:10:00,77.7,76.5,30.08,WNW,288,1.0,5.0,96,0.00,,,0.00,WeatherTracker,2013-07-10 13:10:00,
2013-07-10 08:15:00,78.4,76.8,30.08,NNW,339,3.0,5.0,95,0.00,,,0.00,WeatherTracker,2013-07-10 13:15:00,
2013-07-10 08:20:00,78.8,76.9,30.08,NNW,327,3.0,4.0,94,0.00,,,0.00,WeatherTracker,2013-07-10 13:20:00,
2013-07-10 08:25:00,79.3,77.1,30.08,WNW,284,2.0,5.0,93,0.00,,,0.00,WeatherTracker,2013-07-10 13:25:00,
2013-07-10 08:30:00,79.7,77.2,30.08,NW,309,4.0,7.0,92,0.00,,,0.00,WeatherTracker,2013-07-10 13:30:00,
2013-07-10 08:35:00,80.1,77.2,30.08,NW,322,4.0,7.0,91,0.00,,,0.00,WeatherTracker,2013-07-10 13:35:00,
2013-07-10 08:45:00,81.1,77.9,30.08,NNW,333,5.0,6.0,90,0.00,,,0.00,WeatherTracker,2013-07-10 13:45:00,
2013-07-10 08:50:00,81.4,77.8,30.08,WNW,294,3.0,9.0,89,0.00,,,0.00,WeatherTracker,2013-07-10 13:50:00,
2013-07-10 09:00:00,82.5,78.6,30.08,NW,313,3.0,5.0,88,0.00,,,0.00,WeatherTracker,2013-07-10 14:00:00,
2013-07-10 09:10:00,82.9,78.3,30.08,NNW,340,6.0,7.0,86,0.00,,,0.00,WeatherTracker,2013-07-10 14:10:00,
2013-07-10 09:15:00,82.7,77.7,30.08,NNW,348,3.0,6.0,85,0.00,,,0.00,WeatherTracker,2013-07-10 14:15:00,
2013-07-10 09:20:00,82.7,78.1,30.08,West,281,2.0,6.0,86,0.00,,,0.00,WeatherTracker,2013-07-10 14:20:00,
2013-07-10 09:30:00,82.9,77.9,30.08,North,5,2.0,6.0,85,0.00,,,0.00,WeatherTracker,2013-07-10 14:30:00,
2013-07-10 09:35:00,83.0,77.6,30.08,West,265,3.0,6.0,84,0.00,,,0.00,WeatherTracker,2013-07-10 14:35:00,
2013-07-10 09:45:00,83.8,78.1,30.08,West,279,0.0,3.0,83,0.00,,,0.00,WeatherTracker,2013-07-10 14:45:00,
2013-07-10 09:50:00,83.9,78.2,30.08,West,277,0.0,4.0,83,0.00,,,0.00,WeatherTracker,2013-07-10 14:50:00,
2013-07-10 09:55:00,84.5,78.8,30.08,WNW,282,3.0,4.0,83,0.00,,,0.00,WeatherTracker,2013-07-10 14:55:00,
2013-07-10 10:05:00,84.7,78.9,30.08,SSW,209,0.0,4.0,83,0.00,,,0.00,WeatherTracker,2013-07-10 15:05:00,
2013-07-10 10:10:00,85.6,79.1,30.08,NW,312,2.0,4.0,81,0.00,,,0.00,WeatherTracker,2013-07-10 15:10:00,
2013-07-10 10:20:00,86.1,78.4,30.07,NW,307,2.0,6.0,78,0.00,,,0.00,WeatherTracker,2013-07-10 15:20:00,
2013-07-10 10:25:00,86.6,78.9,30.07,NNW,329,2.0,5.0,78,0.00,,,0.00,WeatherTracker,2013-07-10 15:25:00,
2013-07-10 10:35:00,87.3,79.2,30.07,NNW,327,2.0,5.0,77,0.00,,,0.00,WeatherTracker,2013-07-10 15:35:00,
2013-07-10 10:45:00,86.7,77.8,30.08,NW,326,4.0,6.0,75,0.00,,,0.00,WeatherTracker,2013-07-10 15:45:00,
2013-07-10 10:55:00,85.9,78.2,30.07,NW,319,3.0,6.0,78,0.00,,,0.00,WeatherTracker,2013-07-10 15:55:00,
2013-07-10 11:05:00,85.8,78.1,30.07,WNW,291,2.0,6.0,78,0.00,,,0.00,WeatherTracker,2013-07-10 16:05:00,
2013-07-10 11:10:00,85.7,78.0,30.07,NNW,347,3.0,6.0,78,0.00,,,0.00,WeatherTracker,2013-07-10 16:10:00,
2013-07-10 11:20:00,86.6,78.9,30.07,NW,310,4.0,6.0,78,0.00,,,0.00,WeatherTracker,2013-07-10 16:20:00,
2013-07-10 11:25:00,87.4,78.5,30.06,NNW,348,0.0,6.0,75,0.00,,,0.00,WeatherTracker,2013-07-10 16:25:00,
2013-07-10 11:30:00,87.5,79.0,30.06,NW,317,5.0,6.0,76,0.00,,,0.00,WeatherTracker,2013-07-10 16:30:00,
2013-07-10 11:40:00,87.1,78.6,30.05,North,5,1.0,7.0,76,0.00,,,0.00,WeatherTracker,2013-07-10 16:40:00,
2013-07-10 11:45:00,87.1,77.8,30.05,NNW,341,0.0,5.0,74,0.00,,,0.00,WeatherTracker,2013-07-10 16:45:00,
2013-07-10 11:55:00,87.8,79.3,30.04,NE,53,4.0,6.0,76,0.00,,,0.00,WeatherTracker,2013-07-10 16:55:00,
2013-07-10 12:05:00,87.7,78.4,30.03,NE,42,0.0,4.0,74,0.00,,,0.00,WeatherTracker,2013-07-10 17:05:00,
2013-07-10 12:10:00,87.4,78.5,30.03,North,5,2.0,3.0,75,0.00,,,0.00,WeatherTracker,2013-07-10 17:10:00,
2013-07-10 12:15:00,87.0,78.5,30.03,NNW,336,0.0,5.0,76,0.00,,,0.00,WeatherTracker,2013-07-10 17:15:00,
2013-07-10 12:25:00,87.9,77.7,30.02,NNW,336,0.0,3.0,72,0.00,,,0.00,WeatherTracker,2013-07-10 17:25:00,
2013-07-10 12:35:00,89.0,79.2,30.02,NNE,22,1.0,4.0,73,0.00,,,0.00,WeatherTracker,2013-07-10 17:35:00,
2013-07-10 12:45:00,89.1,78.4,30.01,NNE,23,2.0,4.0,71,0.00,,,0.00,WeatherTracker,2013-07-10 17:45:00,
2013-07-10 12:50:00,89.1,78.9,30.01,NW,306,3.0,5.0,72,0.00,,,0.00,WeatherTracker,2013-07-10 17:50:00,
2013-07-10 12:55:00,88.8,78.6,30.01,West,273,1.0,5.0,72,0.00,,,0.00,WeatherTracker,2013-07-10 17:55:00,
2013-07-10 13:00:00,89.0,79.6,30.01,WSW,247,3.0,4.0,74,0.00,,,0.00,WeatherTracker,2013-07-10 18:00:00,
2013-07-10 13:10:00,89.3,79.5,30.00,WSW,250,2.0,8.0,73,0.00,,,0.00,WeatherTracker,2013-07-10 18:10:00,
2013-07-10 13:15:00,90.2,80.3,30.00,WSW,255,5.0,8.0,73,0.00,,,0.00,WeatherTracker,2013-07-10 18:15:00,
2013-07-10 13:25:00,89.7,79.0,30.00,South,190,5.0,8.0,71,0.00,,,0.00,WeatherTracker,2013-07-10 18:25:00,
2013-07-10 13:35:00,89.7,79.0,30.00,West,267,2.0,7.0,71,0.00,,,0.00,WeatherTracker,2013-07-10 18:35:00,
2013-07-10 13:40:00,89.9,79.6,30.00,West,262,2.0,7.0,72,0.00,,,0.00,WeatherTracker,2013-07-10 18:40:00,
2013-07-10 13:50:00,90.8,78.7,30.00,SSW,205,2.0,7.0,68,0.00,,,0.00,WeatherTracker,2013-07-10 18:50:00,
2013-07-10 14:00:00,89.2,79.0,30.00,SW,236,6.0,8.0,72,0.00,,,0.00,WeatherTracker,2013-07-10 19:00:00,
2013-07-10 14:10:00,87.7,78.4,30.00,SW,230,13.0,13.0,74,0.00,,,0.00,WeatherTracker,2013-07-10 19:10:00,
2013-07-10 14:20:00,85.4,78.1,30.00,West,259,6.0,15.0,79,0.00,,,0.00,WeatherTracker,2013-07-10 19:20:00,
2013-07-10 14:25:00,84.3,76.7,30.00,WNW,300,7.0,13.0,78,0.00,,,0.00,WeatherTracker,2013-07-10 19:25:00,
2013-07-10 14:30:00,82.8,74.8,30.00,West,275,7.0,14.0,77,0.00,,,0.00,WeatherTracker,2013-07-10 19:30:00,
2013-07-10 14:35:00,81.2,74.4,30.00,West,259,15.0,15.0,80,0.00,,,0.00,WeatherTracker,2013-07-10 19:35:00,
2013-07-10 14:40:00,79.1,73.8,30.00,WSW,242,11.0,15.0,84,0.09,,,0.09,WeatherTracker,2013-07-10 19:40:00,
2013-07-10 14:50:00,76.0,72.5,30.00,SSW,202,5.0,14.0,89,0.30,,,0.30,WeatherTracker,2013-07-10 19:50:00,
2013-07-10 14:55:00,75.6,72.8,30.00,SSW,200,3.0,11.0,91,0.33,,,0.33,WeatherTracker,2013-07-10 19:55:00,
2013-07-10 15:00:00,75.3,72.8,29.99,SW,234,0.0,9.0,92,0.34,,,0.34,WeatherTracker,2013-07-10 20:00:00,
2013-07-10 15:10:00,75.7,73.5,29.99,SW,217,2.0,2.0,93,0.34,,,0.34,WeatherTracker,2013-07-10 20:10:00,
2013-07-10 15:15:00,76.0,73.8,29.99,West,280,0.0,2.0,93,0.34,,,0.34,WeatherTracker,2013-07-10 20:15:00,
2013-07-10 15:20:00,76.1,74.2,30.00,West,280,0.0,2.0,94,0.34,,,0.34,WeatherTracker,2013-07-10 20:20:00,
2013-07-10 15:25:00,76.3,74.4,30.00,West,280,0.0,0.0,94,0.34,,,0.34,WeatherTracker,2013-07-10 20:25:00,
2013-07-10 15:35:00,76.3,74.8,29.99,West,280,0.0,0.0,95,0.34,,,0.34,WeatherTracker,2013-07-10 20:35:00,
2013-07-10 15:40:00,76.3,74.8,29.99,West,281,2.0,2.0,95,0.25,,,0.34,WeatherTracker,2013-07-10 20:40:00,
2013-07-10 15:45:00,76.3,74.8,30.00,West,281,0.0,4.0,95,0.16,,,0.34,WeatherTracker,2013-07-10 20:45:00,
2013-07-10 15:55:00,76.4,74.9,30.01,SSE,149,0.0,5.0,95,0.01,,,0.34,WeatherTracker,2013-07-10 20:55:00,
2013-07-10 16:05:00,76.4,74.9,30.02,ESE,117,0.0,5.0,95,0.00,,,0.34,WeatherTracker,2013-07-10 21:05:00,
2013-07-10 16:10:00,76.3,74.8,30.03,ESE,117,0.0,5.0,95,0.00,,,0.34,WeatherTracker,2013-07-10 21:10:00,
2013-07-10 16:15:00,75.9,74.4,30.03,ESE,122,4.0,6.0,95,0.00,,,0.34,WeatherTracker,2013-07-10 21:15:00,
2013-07-10 16:20:00,75.5,74.0,30.03,ESE,115,0.0,7.0,95,0.00,,,0.34,WeatherTracker,2013-07-10 21:20:00,
2013-07-10 16:30:00,75.0,73.5,30.03,ESE,105,2.0,6.0,95,0.00,,,0.34,WeatherTracker,2013-07-10 21:30:00,
2013-07-10 16:35:00,74.9,73.4,30.03,East,96,4.0,6.0,95,0.00,,,0.34,WeatherTracker,2013-07-10 21:35:00,
2013-07-10 16:40:00,74.7,73.2,30.03,East,90,1.0,8.0,95,0.00,,,0.34,WeatherTracker,2013-07-10 21:40:00,
2013-07-10 16:45:00,74.6,73.1,30.03,SE,124,2.0,8.0,95,0.00,,,0.34,WeatherTracker,2013-07-10 21:45:00,
2013-07-10 16:55:00,74.3,72.8,30.03,East,80,2.0,6.0,95,0.00,,,0.34,WeatherTracker,2013-07-10 21:55:00,
2013-07-10 17:00:00,74.2,72.7,30.03,East,82,0.0,4.0,95,0.00,,,0.34,WeatherTracker,2013-07-10 22:00:00,
2013-07-10 17:10:00,74.2,73.0,30.02,NNE,30,0.0,1.0,96,0.00,,,0.34,WeatherTracker,2013-07-10 22:10:00,
2013-07-10 17:15:00,74.2,73.0,30.02,NNE,31,2.0,2.0,96,0.01,,,0.35,WeatherTracker,2013-07-10 22:15:00,
2013-07-10 17:25:00,74.0,72.8,30.03,NNE,20,4.0,10.0,96,0.01,,,0.35,WeatherTracker,2013-07-10 22:25:00,
2013-07-10 17:30:00,73.9,72.7,30.03,NE,56,3.0,10.0,96,0.02,,,0.36,WeatherTracker,2013-07-10 22:30:00,
2013-07-10 17:40:00,73.8,72.6,30.03,ESE,115,4.0,9.0,96,0.02,,,0.36,WeatherTracker,2013-07-10 22:40:00,
2013-07-10 17:45:00,73.8,72.9,30.03,NE,49,0.0,9.0,97,0.02,,,0.36,WeatherTracker,2013-07-10 22:45:00,
2013-07-10 17:55:00,73.5,72.3,30.03,ESE,107,0.0,7.0,96,0.02,,,0.36,WeatherTracker,2013-07-10 22:55:00,
2013-07-10 18:00:00,73.5,72.3,30.02,East,95,4.0,6.0,96,0.03,,,0.37,WeatherTracker,2013-07-10 23:00:00,
2013-07-10 18:05:00,73.5,72.3,30.02,East,94,0.0,5.0,96,0.03,,,0.37,WeatherTracker,2013-07-10 23:05:00,
2013-07-10 18:15:00,73.5,72.6,30.03,South,179,5.0,5.0,97,0.03,,,0.38,WeatherTracker,2013-07-10 23:15:00,
2013-07-10 18:20:00,73.5,72.6,30.03,SSW,199,1.0,6.0,97,0.04,,,0.39,WeatherTracker,2013-07-10 23:20:00,
2013-07-10 18:25:00,73.6,72.7,30.03,SSW,205,5.0,7.0,97,0.06,,,0.41,WeatherTracker,2013-07-10 23:25:00,
2013-07-10 18:30:00,73.6,72.7,30.03,South,190,4.0,10.0,97,0.06,,,0.42,WeatherTracker,2013-07-10 23:30:00,
2013-07-10 18:35:00,73.6,72.7,30.02,SSE,165,5.0,10.0,97,0.08,,,0.44,WeatherTracker,2013-07-10 23:35:00,
2013-07-10 18:45:00,73.6,72.7,30.01,SE,140,5.0,6.0,97,0.11,,,0.47,WeatherTracker,2013-07-10 23:45:00,
2013-07-10 18:55:00,73.6,72.7,30.01,South,170,1.0,7.0,97,0.12,,,0.48,WeatherTracker,2013-07-10 23:55:00,
2013-07-10 19:00:00,73.5,72.6,30.00,South,182,2.0,6.0,97,0.11,,,0.48,WeatherTracker,2013-07-11 00:00:00,
2013-07-10 19:10:00,73.5,72.6,30.01,South,182,0.0,4.0,97,0.10,,,0.48,WeatherTracker,2013-07-11 00:10:00,
2013-07-10 19:15:00,73.6,72.7,30.01,South,182,2.0,2.0,97,0.10,,,0.48,WeatherTracker,2013-07-11 00:15:00,
2013-07-10 19:20:00,73.7,72.8,30.00,South,182,2.0,2.0,97,0.09,,,0.48,WeatherTracker,2013-07-11 00:20:00,
2013-07-10 19:25:00,73.7,72.8,29.99,South,182,0.0,2.0,97,0.07,,,0.48,WeatherTracker,2013-07-11 00:25:00,
2013-07-10 19:35:00,73.6,72.7,29.99,South,182,0.0,3.0,97,0.04,,,0.48,WeatherTracker,2013-07-11 00:35:00,
2013-07-10 19:40:00,73.6,72.7,29.99,South,182,1.0,3.0,97,0.03,,,0.49,WeatherTracker,2013-07-11 00:40:00,
2013-07-10 19:45:00,73.6,72.7,29.98,South,182,0.0,3.0,97,0.02,,,0.49,WeatherTracker,2013-07-11 00:45:00,
2013-07-10 19:55:00,73.6,72.7,29.97,South,182,0.0,0.0,97,0.01,,,0.49,WeatherTracker,2013-07-11 00:55:00,
2013-07-10 20:00:00,73.6,72.7,29.97,South,182,0.0,0.0,97,0.01,,,0.49,WeatherTracker,2013-07-11 01:00:00,
2013-07-10 20:05:00,73.6,72.7,29.98,South,182,0.0,2.0,97,0.01,,,0.49,WeatherTracker,2013-07-11 01:05:00,
2013-07-10 20:10:00,73.6,72.7,29.98,East,80,0.0,2.0,97,0.01,,,0.49,WeatherTracker,2013-07-11 01:10:00,
2013-07-10 20:15:00,73.6,72.7,29.98,East,80,0.0,2.0,97,0.01,,,0.49,WeatherTracker,2013-07-11 01:15:00,
2013-07-10 20:20:00,73.5,72.6,29.97,East,80,0.0,2.0,97,0.01,,,0.49,WeatherTracker,2013-07-11 01:20:00,
2013-07-10 20:30:00,73.4,72.5,29.97,East,80,0.0,0.0,97,0.01,,,0.49,WeatherTracker,2013-07-11 01:30:00,
2013-07-10 20:35:00,73.5,72.6,29.97,East,80,0.0,0.0,97,0.01,,,0.49,WeatherTracker,2013-07-11 01:35:00,
2013-07-10 20:40:00,73.4,72.5,29.96,East,80,0.0,0.0,97,0.00,,,0.49,WeatherTracker,2013-07-11 01:40:00,
2013-07-10 20:50:00,73.4,72.5,29.96,East,80,0.0,0.0,97,0.00,,,0.49,WeatherTracker,2013-07-11 01:50:00,
2013-07-10 20:55:00,73.3,72.4,29.96,ENE,65,3.0,4.0,97,0.00,,,0.49,WeatherTracker,2013-07-11 01:55:00,
2013-07-10 21:05:00,73.3,72.4,29.96,ENE,64,1.0,4.0,97,0.00,,,0.49,WeatherTracker,2013-07-11 02:05:00,
2013-07-10 21:10:00,73.2,72.3,29.96,ENE,64,0.0,4.0,97,0.00,,,0.49,WeatherTracker,2013-07-11 02:10:00,
2013-07-10 21:20:00,73.1,72.5,29.96,ENE,64,0.0,0.0,98,0.00,,,0.49,WeatherTracker,2013-07-11 02:20:00,
2013-07-10 21:25:00,73.1,72.5,29.96,ENE,64,0.0,0.0,98,0.00,,,0.49,WeatherTracker,2013-07-11 02:25:00,
2013-07-10 21:30:00,73.1,72.5,29.96,ENE,64,0.0,0.0,98,0.00,,,0.49,WeatherTracker,2013-07-11 02:30:00,
2013-07-10 21:35:00,73.0,72.4,29.96,ENE,64,0.0,0.0,98,0.00,,,0.49,WeatherTracker,2013-07-11 02:35:00,
2013-07-10 21:45:00,73.1,72.5,29.96,ENE,64,0.0,0.0,98,0.00,,,0.49,WeatherTracker,2013-07-11 02:45:00,
2013-07-10 21:55:00,73.1,72.5,29.95,ENE,64,2.0,3.0,98,0.00,,,0.49,WeatherTracker,2013-07-11 02:55:00,
2013-07-10 22:00:00,73.1,72.5,29.95,SSW,193,4.0,6.0,98,0.00,,,0.49,WeatherTracker,2013-07-11 03:00:00,
2013-07-10 22:10:00,73.0,72.4,29.95,SW,236,3.0,5.0,98,0.00,,,0.49,WeatherTracker,2013-07-11 03:10:00,
2013-07-10 22:15:00,73.0,72.4,29.96,SSW,203,2.0,5.0,98,0.00,,,0.49,WeatherTracker,2013-07-11 03:15:00,
2013-07-10 22:25:00,73.0,72.4,29.96,SSW,211,1.0,6.0,98,0.00,,,0.49,WeatherTracker,2013-07-11 03:25:00,
2013-07-10 22:30:00,73.1,72.5,29.96,South,176,2.0,6.0,98,0.00,,,0.49,WeatherTracker,2013-07-11 03:30:00,
2013-07-10 22:35:00,73.1,72.5,29.96,SSE,159,2.0,6.0,98,0.00,,,0.49,WeatherTracker,2013-07-11 03:35:00,
2013-07-10 22:40:00,73.1,72.5,29.96,South,190,2.0,6.0,98,0.00,,,0.49,WeatherTracker,2013-07-11 03:40:00,
2013-07-10 22:45:00,73.2,72.6,29.97,SSW,205,1.0,6.0,98,0.00,,,0.49,WeatherTracker,2013-07-11 03:45:00,
2013-07-10 22:55:00,73.3,72.7,29.97,SSW,210,0.0,4.0,98,0.00,,,0.49,WeatherTracker,2013-07-11 03:55:00,
2013-07-10 23:05:00,73.4,72.8,29.97,SSW,201,2.0,6.0,98,0.00,,,0.49,WeatherTracker,2013-07-11 04:05:00,
2013-07-10 23:10:00,73.3,72.7,29.97,SW,221,2.0,6.0,98,0.00,,,0.49,WeatherTracker,2013-07-11 04:10:00,
2013-07-10 23:15:00,73.2,72.6,29.97,SW,221,2.0,5.0,98,0.00,,,0.49,WeatherTracker,2013-07-11 04:15:00,
2013-07-10 23:20:00,73.1,72.5,29.97,South,191,1.0,5.0,98,0.00,,,0.49,WeatherTracker,2013-07-11 04:20:00,
2013-07-10 23:25:00,73.1,72.5,29.97,South,191,0.0,5.0,98,0.00,,,0.49,WeatherTracker,2013-07-11 04:25:00,
2013-07-10 23:30:00,73.1,72.5,29.98,South,191,0.0,3.0,98,0.00,,,0.49,WeatherTracker,2013-07-11 04:30:00,
2013-07-10 23:35:00,73.0,72.4,29.98,South,191,0.0,4.0,98,0.00,,,0.49,WeatherTracker,2013-07-11 04:35:00,
2013-07-10 23:40:00,73.0,72.4,29.98,South,191,0.0,4.0,98,0.00,,,0.49,WeatherTracker,2013-07-11 04:40:00,
2013-07-10 23:50:00,72.9,72.3,29.99,South,191,3.0,3.0,98,0.00,,,0.49,WeatherTracker,2013-07-11 04:50:00,